createdAt,value
2017-09-12T00:01:46.799Z,14.10
2017-09-12T00:04:14.398Z,14.10
2017-09-12T00:06:42.749Z,14.10
2017-09-12T00:09:11.346Z,14.10
2017-09-12T00:11:38.910Z,14.10
2017-09-12T00:14:06.500Z,14.20
2017-09-12T00:16:34.896Z,14.20
2017-09-12T00:19:02.495Z,14.20
2017-09-12T00:21:30.849Z,14.20
2017-09-12T00:23:59.408Z,14.20
2017-09-12T00:26:26.984Z,14.20
2017-09-12T00:28:55.315Z,14.30
2017-09-12T00:31:23.120Z,14.30
2017-09-12T00:33:50.716Z,14.20
2017-09-12T00:36:19.051Z,14.20
2017-09-12T00:38:46.777Z,14.20
2017-09-12T00:41:14.364Z,14.20
2017-09-12T00:43:41.953Z,14.30
2017-09-12T00:46:09.589Z,14.30
2017-09-12T00:48:37.924Z,14.30
2017-09-12T00:51:05.501Z,14.30
2017-09-12T00:53:34.060Z,14.30
2017-09-12T00:56:02.399Z,14.30
2017-09-12T00:58:29.983Z,14.20
2017-09-12T01:00:57.616Z,14.20
2017-09-12T01:03:25.969Z,14.10
2017-09-12T01:05:54.319Z,14.10
2017-09-12T01:08:22.086Z,14.10
2017-09-12T01:10:50.445Z,14.10
2017-09-12T01:13:18.018Z,14.10
2017-09-12T01:15:45.752Z,14.10
2017-09-12T01:18:13.341Z,14.00
2017-09-12T01:20:40.921Z,14.10
2017-09-12T01:23:09.494Z,14.00
2017-09-12T01:25:37.834Z,14.00
2017-09-12T01:28:05.421Z,14.00
2017-09-12T01:30:33.085Z,14.00
2017-09-12T01:33:00.670Z,13.90
2017-09-12T01:35:28.256Z,13.90
2017-09-12T01:37:56.100Z,14.00
2017-09-12T01:40:23.689Z,13.90
2017-09-12T01:42:51.258Z,13.90
2017-09-12T01:45:18.865Z,13.90
2017-09-12T01:47:46.447Z,13.90
2017-09-12T01:50:14.786Z,14.00
2017-09-12T01:52:42.584Z,13.90
2017-09-12T01:55:10.167Z,14.00
2017-09-12T01:57:37.753Z,14.10
2017-09-12T02:00:06.142Z,14.10
2017-09-12T02:02:33.729Z,14.00
2017-09-12T02:05:01.302Z,14.10
2017-09-12T02:07:28.921Z,14.10
2017-09-12T02:09:56.499Z,14.10
2017-09-12T02:12:24.849Z,14.20
2017-09-12T02:14:53.235Z,14.20
2017-09-12T02:17:20.807Z,14.20
2017-09-12T02:19:48.393Z,14.20
2017-09-12T02:22:16.023Z,14.20
2017-09-12T02:24:43.617Z,14.20
2017-09-12T02:27:11.200Z,14.30
2017-09-12T02:29:38.834Z,14.20
2017-09-12T02:32:06.416Z,14.20
2017-09-12T02:34:34.772Z,14.20
2017-09-12T02:37:02.542Z,14.20
2017-09-12T02:39:30.921Z,14.20
2017-09-12T02:41:58.494Z,14.20
2017-09-12T02:44:27.012Z,14.20
2017-09-12T02:46:55.364Z,14.20
2017-09-12T02:49:24.172Z,14.20
2017-09-12T02:51:51.800Z,14.20
2017-09-12T02:54:19.385Z,14.20
2017-09-12T02:56:46.958Z,14.20
2017-09-12T02:59:14.565Z,14.20
2017-09-12T03:01:42.153Z,14.20
2017-09-12T03:04:09.737Z,14.20
2017-09-12T03:06:37.397Z,14.20
2017-09-12T03:09:04.985Z,14.20
2017-09-12T03:11:33.329Z,14.10
2017-09-12T03:14:01.012Z,14.10
2017-09-12T03:16:29.354Z,14.00
2017-09-12T03:18:56.928Z,14.00
2017-09-12T03:21:24.696Z,14.00
2017-09-12T03:23:52.272Z,13.90
2017-09-12T03:26:20.697Z,13.80
2017-09-12T03:28:48.441Z,13.80
2017-09-12T03:31:16.023Z,13.70
2017-09-12T03:33:43.598Z,13.80
2017-09-12T03:36:11.997Z,13.80
2017-09-12T03:38:39.568Z,13.80
2017-09-12T03:41:07.145Z,13.80
2017-09-12T03:43:35.544Z,13.90
2017-09-12T03:46:03.131Z,13.90
2017-09-12T03:48:30.702Z,13.90
2017-09-12T03:50:59.378Z,13.90
2017-09-12T03:53:27.719Z,13.90
2017-09-12T03:55:55.295Z,13.90
2017-09-12T03:58:22.970Z,13.90
2017-09-12T04:00:50.551Z,13.90
2017-09-12T04:03:18.144Z,14.00
2017-09-12T04:05:45.762Z,13.90
2017-09-12T04:08:14.132Z,13.90
2017-09-12T04:10:41.720Z,13.80
2017-09-12T04:13:09.332Z,13.80
2017-09-12T04:15:36.923Z,13.80
2017-09-12T04:18:04.503Z,13.80
2017-09-12T04:20:32.916Z,13.70
2017-09-12T04:23:00.500Z,13.70
2017-09-12T04:25:28.852Z,13.80
2017-09-12T04:27:56.619Z,13.70
2017-09-12T04:30:24.958Z,13.70
2017-09-12T04:32:52.545Z,13.70
2017-09-12T04:35:21.106Z,13.70
2017-09-12T04:37:48.696Z,13.70
2017-09-12T04:40:16.283Z,13.70
2017-09-12T04:42:44.663Z,13.80
2017-09-12T04:45:12.243Z,13.70
2017-09-12T04:47:40.589Z,13.70
2017-09-12T04:50:08.329Z,13.70
2017-09-12T04:52:35.895Z,13.80
2017-09-12T04:57:36.251Z,13.80
2017-09-12T05:00:04.595Z,13.80
2017-09-12T05:02:32.945Z,13.80
2017-09-12T05:05:00.558Z,13.80
2017-09-12T05:07:28.144Z,13.80
2017-09-12T05:09:55.723Z,13.80
2017-09-12T05:12:23.355Z,13.80
2017-09-12T05:14:50.953Z,13.90
2017-09-12T05:17:18.536Z,13.90
2017-09-12T05:19:46.932Z,13.90
2017-09-12T05:22:14.506Z,13.90
2017-09-12T05:24:42.096Z,13.90
2017-09-12T05:27:09.765Z,13.90
2017-09-12T05:29:37.351Z,13.90
2017-09-12T05:32:04.937Z,14.00
2017-09-12T05:34:32.576Z,14.00
2017-09-12T05:37:00.167Z,14.00
2017-09-12T05:39:27.760Z,14.00
2017-09-12T05:41:56.160Z,14.10
2017-09-12T05:44:23.739Z,14.10
2017-09-12T05:46:51.306Z,14.10
2017-09-12T05:49:19.697Z,14.20
2017-09-12T05:51:47.270Z,14.20
2017-09-12T05:54:14.846Z,14.20
2017-09-12T05:56:43.317Z,14.20
2017-09-12T05:59:11.668Z,14.20
2017-09-12T06:01:39.239Z,14.20
2017-09-12T06:04:06.855Z,14.20
2017-09-12T06:06:34.430Z,14.30
2017-09-12T06:09:02.003Z,14.30
2017-09-12T06:11:29.638Z,14.30
2017-09-12T06:13:57.217Z,14.30
2017-09-12T06:16:24.789Z,14.30
2017-09-12T06:18:53.289Z,14.40
2017-09-12T06:21:20.870Z,14.40
2017-09-12T06:23:48.466Z,14.40
2017-09-12T06:26:16.094Z,14.40
2017-09-12T06:28:44.444Z,14.40
2017-09-12T06:31:12.792Z,14.40
2017-09-12T06:33:40.436Z,14.40
2017-09-12T06:36:08.006Z,14.40
2017-09-12T06:38:36.376Z,14.40
2017-09-12T06:41:04.766Z,14.40
2017-09-12T06:43:32.348Z,14.40
2017-09-12T06:45:59.923Z,14.40
2017-09-12T06:48:27.550Z,14.50
2017-09-12T06:50:55.891Z,14.50
2017-09-12T06:53:23.477Z,14.50
2017-09-12T06:55:51.105Z,14.50
2017-09-12T06:58:19.442Z,14.50
2017-09-12T07:00:47.015Z,14.40
2017-09-12T07:03:15.714Z,14.40
2017-09-12T07:05:43.300Z,14.40
2017-09-12T07:08:11.515Z,14.40
2017-09-12T07:10:39.127Z,14.40
2017-09-12T07:13:07.470Z,14.40
2017-09-12T07:15:35.065Z,14.40
2017-09-12T07:18:02.744Z,14.40
2017-09-12T07:20:30.341Z,14.40
2017-09-12T07:22:57.929Z,14.50
2017-09-12T07:25:25.671Z,14.50
2017-09-12T07:27:53.248Z,14.60
2017-09-12T07:30:20.836Z,14.60
2017-09-12T07:32:48.451Z,14.60
2017-09-12T07:35:16.798Z,14.70
2017-09-12T07:37:44.375Z,14.60
2017-09-12T07:40:11.998Z,14.70
2017-09-12T07:42:40.339Z,14.90
2017-09-12T07:45:07.928Z,14.90
2017-09-12T07:47:35.640Z,15.00
2017-09-12T07:50:03.269Z,15.10
2017-09-12T07:52:30.848Z,15.10
2017-09-12T07:54:58.615Z,15.10
2017-09-12T07:57:26.189Z,15.10
2017-09-12T07:59:53.790Z,15.10
2017-09-12T08:02:21.399Z,15.10
2017-09-12T08:04:49.004Z,15.10
2017-09-12T08:07:16.579Z,15.10
2017-09-12T08:09:44.202Z,15.10
2017-09-12T08:12:11.789Z,15.10
2017-09-12T08:14:39.380Z,15.10
2017-09-12T08:17:07.208Z,15.10
2017-09-12T08:19:34.873Z,15.10
2017-09-12T08:22:02.468Z,15.10
2017-09-12T08:24:30.251Z,15.00
2017-09-12T08:26:57.845Z,15.00
2017-09-12T08:29:25.437Z,14.90
2017-09-12T08:31:53.063Z,14.90
2017-09-12T08:34:21.425Z,15.10
2017-09-12T08:36:49.762Z,15.10
2017-09-12T08:39:17.405Z,15.10
2017-09-12T08:41:44.974Z,15.10
2017-09-12T08:44:13.333Z,15.00
2017-09-12T08:46:41.728Z,14.90
2017-09-12T08:49:09.313Z,14.90
2017-09-12T08:51:36.887Z,14.80
2017-09-12T08:54:05.444Z,15.10
2017-09-12T08:56:33.021Z,15.10
2017-09-12T08:59:00.598Z,15.30
2017-09-12T09:01:28.418Z,15.50
2017-09-12T09:03:56.005Z,15.60
2017-09-12T09:06:23.578Z,15.70
2017-09-12T09:08:51.973Z,15.80
2017-09-12T09:11:19.556Z,15.80
2017-09-12T09:13:47.144Z,15.90
2017-09-12T09:16:14.778Z,16.00
2017-09-12T09:18:43.111Z,16.20
2017-09-12T09:21:10.685Z,16.20
2017-09-12T09:23:39.259Z,16.80
2017-09-12T09:26:06.848Z,16.80
2017-09-12T09:28:34.423Z,17.00
2017-09-12T09:31:02.810Z,17.30
2017-09-12T09:33:31.165Z,17.20
2017-09-12T09:35:58.761Z,17.20
2017-09-12T09:38:26.378Z,17.00
2017-09-12T09:40:53.946Z,16.90
2017-09-12T09:43:21.537Z,16.70
2017-09-12T09:45:49.949Z,16.60
2017-09-12T09:48:17.532Z,16.60
2017-09-12T09:50:45.109Z,16.70
2017-09-12T09:53:12.870Z,16.80
2017-09-12T09:55:40.442Z,17.10
2017-09-12T09:58:08.029Z,17.50
2017-09-12T10:00:36.612Z,18.30
2017-09-12T10:03:04.195Z,18.30
2017-09-12T10:05:31.783Z,18.40
2017-09-12T10:08:00.178Z,18.80
2017-09-12T10:10:27.751Z,18.80
2017-09-12T10:12:55.338Z,18.80
2017-09-12T10:15:23.840Z,19.00
2017-09-12T10:17:51.437Z,18.90
2017-09-12T10:20:19.826Z,19.40
2017-09-12T10:22:47.459Z,19.30
2017-09-12T10:25:15.821Z,19.70
2017-09-12T10:27:43.430Z,19.70
2017-09-12T10:30:11.056Z,19.90
2017-09-12T10:32:38.645Z,19.90
2017-09-12T10:35:06.979Z,19.90
2017-09-12T10:37:34.619Z,19.90
2017-09-12T10:40:02.203Z,19.90
2017-09-12T10:42:30.576Z,20.20
2017-09-12T10:44:58.197Z,20.20
2017-09-12T10:47:26.538Z,19.90
2017-09-12T10:49:54.118Z,19.90
2017-09-12T10:52:22.500Z,19.40
2017-09-12T10:54:50.077Z,19.40
2017-09-12T10:57:17.661Z,19.20
2017-09-12T10:59:46.069Z,18.70
2017-09-12T11:02:13.647Z,18.70
2017-09-12T11:04:41.230Z,18.40
2017-09-12T11:07:08.951Z,18.20
2017-09-12T11:09:37.299Z,17.90
2017-09-12T11:12:04.882Z,17.90
2017-09-12T11:14:32.500Z,17.90
2017-09-12T11:17:00.839Z,18.20
2017-09-12T11:19:28.411Z,18.20
2017-09-12T11:21:57.005Z,18.70
2017-09-12T11:24:24.592Z,18.70
2017-09-12T11:26:52.177Z,18.90
2017-09-12T11:29:19.828Z,19.10
2017-09-12T11:31:47.422Z,19.00
2017-09-12T11:34:14.993Z,18.80
2017-09-12T11:36:42.636Z,18.60
2017-09-12T11:39:10.206Z,18.40
2017-09-12T11:41:37.783Z,18.30
2017-09-12T11:44:05.390Z,18.20
2017-09-12T11:46:33.742Z,18.50
2017-09-12T11:49:02.173Z,18.80
2017-09-12T11:51:29.909Z,18.80
2017-09-12T11:53:57.484Z,19.00
2017-09-12T11:56:25.064Z,19.30
2017-09-12T11:58:52.832Z,19.60
2017-09-12T12:01:20.416Z,19.80
2017-09-12T12:03:48.008Z,19.90
2017-09-12T12:06:15.729Z,19.80
2017-09-12T12:08:44.080Z,19.80
2017-09-12T12:11:12.418Z,20.00
2017-09-12T12:13:40.052Z,20.00
2017-09-12T12:16:07.641Z,20.30
2017-09-12T12:18:35.983Z,20.00
2017-09-12T12:21:04.397Z,19.60
2017-09-12T12:23:31.974Z,19.50
2017-09-12T12:25:59.560Z,19.10
2017-09-12T12:28:27.942Z,18.90
2017-09-12T12:30:55.533Z,18.90
2017-09-12T12:33:23.110Z,19.30
2017-09-12T12:35:51.511Z,20.10
2017-09-12T12:38:19.102Z,20.10
2017-09-12T12:40:47.448Z,20.20
2017-09-12T12:43:15.063Z,20.20
2017-09-12T12:45:42.648Z,20.20
2017-09-12T12:48:11.845Z,20.00
2017-09-12T12:50:40.235Z,19.90
2017-09-12T12:53:08.589Z,19.80
2017-09-12T12:55:36.164Z,19.80
2017-09-12T12:58:03.977Z,19.80
2017-09-12T13:00:31.564Z,19.70
2017-09-12T13:02:59.135Z,19.60
2017-09-12T13:05:26.780Z,19.50
2017-09-12T13:07:54.355Z,19.30
2017-09-12T13:10:21.941Z,19.00
2017-09-12T13:12:49.586Z,18.80
2017-09-12T13:15:17.172Z,18.50
2017-09-12T13:17:45.518Z,18.20
2017-09-12T13:20:13.297Z,18.20
2017-09-12T13:22:40.893Z,18.10
2017-09-12T13:25:09.197Z,18.20
2017-09-12T13:27:36.822Z,18.30
2017-09-12T13:30:04.390Z,18.60
2017-09-12T13:32:31.987Z,18.70
2017-09-12T13:34:59.636Z,18.70
2017-09-12T13:37:27.232Z,18.80
2017-09-12T13:39:54.802Z,18.90
2017-09-12T13:42:22.616Z,18.80
2017-09-12T13:44:50.203Z,18.80
2017-09-12T13:47:17.797Z,18.70
2017-09-12T13:49:45.456Z,18.60
2017-09-12T13:52:13.038Z,18.30
2017-09-12T13:54:40.624Z,18.20
2017-09-12T13:57:09.143Z,17.90
2017-09-12T13:59:36.726Z,17.90
2017-09-12T14:02:05.058Z,17.40
2017-09-12T14:04:32.866Z,17.40
2017-09-12T14:07:00.449Z,17.40
2017-09-12T14:09:28.019Z,17.50
2017-09-12T14:11:55.665Z,17.60
2017-09-12T14:14:24.007Z,17.60
2017-09-12T14:16:51.577Z,17.60
2017-09-12T14:19:20.140Z,17.60
2017-09-12T14:21:48.477Z,17.60
2017-09-12T14:24:16.047Z,17.60
2017-09-12T14:26:44.427Z,17.40
2017-09-12T14:29:12.002Z,17.40
2017-09-12T14:31:39.584Z,17.50
2017-09-12T14:34:07.370Z,17.60
2017-09-12T14:36:34.954Z,17.90
2017-09-12T14:39:02.546Z,18.00
2017-09-12T14:41:30.949Z,18.20
2017-09-12T14:43:58.715Z,18.20
2017-09-12T14:46:27.071Z,18.20
2017-09-12T14:48:54.929Z,18.20
2017-09-12T14:51:22.533Z,18.20
2017-09-12T14:53:50.141Z,18.10
2017-09-12T14:56:18.917Z,18.10
2017-09-12T14:58:46.510Z,18.10
2017-09-12T15:01:14.083Z,18.00
2017-09-12T15:03:41.708Z,18.00
2017-09-12T15:06:09.402Z,18.00
2017-09-12T15:08:37.004Z,18.00
2017-09-12T15:11:04.732Z,17.90
2017-09-12T15:13:32.507Z,18.00
2017-09-12T15:16:00.322Z,17.90
2017-09-12T15:18:27.991Z,17.80
2017-09-12T15:20:55.568Z,17.80
2017-09-12T15:23:23.144Z,17.70
2017-09-12T15:25:50.785Z,17.70
2017-09-12T15:28:18.366Z,17.70
2017-09-12T15:30:45.995Z,17.70
2017-09-12T15:33:13.663Z,17.60
2017-09-12T15:35:41.244Z,17.50
2017-09-12T15:38:10.353Z,17.30
2017-09-12T15:40:37.979Z,17.30
2017-09-12T15:43:06.325Z,17.20
2017-09-12T15:45:34.667Z,17.20
2017-09-12T15:48:02.305Z,17.10
2017-09-12T15:50:29.958Z,17.20
2017-09-12T15:52:57.526Z,17.20
2017-09-12T15:55:26.016Z,17.10
2017-09-12T15:57:53.596Z,17.10
2017-09-12T16:00:21.177Z,17.00
2017-09-12T16:02:49.572Z,16.90
2017-09-12T16:05:17.151Z,16.80
2017-09-12T16:07:44.723Z,16.70
2017-09-12T16:10:13.329Z,16.70
2017-09-12T16:12:40.939Z,16.70
2017-09-12T16:15:08.519Z,16.70
2017-09-12T16:17:36.163Z,16.70
2017-09-12T16:20:03.749Z,16.70
2017-09-12T16:22:31.340Z,16.60
2017-09-12T16:24:58.962Z,16.50
2017-09-12T16:27:26.687Z,16.40
2017-09-12T16:29:55.031Z,16.10
2017-09-12T16:32:22.652Z,16.10
2017-09-12T16:34:50.225Z,16.00
2017-09-12T16:37:17.824Z,15.90
2017-09-12T16:39:45.446Z,15.70
2017-09-12T16:42:13.023Z,15.60
2017-09-12T16:44:40.608Z,15.50
2017-09-12T16:47:08.236Z,15.40
2017-09-12T16:49:35.845Z,15.30
2017-09-12T16:52:03.430Z,15.20
2017-09-12T16:54:31.600Z,15.10
2017-09-12T16:56:59.373Z,15.10
2017-09-12T16:59:27.740Z,14.90
2017-09-12T17:01:55.437Z,14.90
2017-09-12T17:04:24.443Z,14.90
2017-09-12T17:06:53.177Z,14.80
2017-09-12T17:09:21.953Z,14.70
2017-09-12T17:11:51.247Z,14.60
2017-09-12T17:14:20.153Z,14.60
2017-09-12T17:16:49.733Z,14.50
2017-09-12T17:19:18.296Z,14.40
2017-09-12T17:21:47.353Z,14.30
2017-09-12T17:24:15.075Z,14.30
2017-09-12T17:26:42.665Z,14.20
2017-09-12T17:29:10.269Z,14.10
2017-09-12T17:31:38.326Z,14.10
2017-09-12T17:34:06.138Z,14.00
2017-09-12T17:36:34.248Z,13.90
2017-09-12T17:39:03.156Z,13.80
2017-09-12T17:41:30.832Z,13.80
2017-09-12T17:43:59.393Z,13.70
2017-09-12T17:46:28.217Z,13.70
2017-09-12T17:48:56.354Z,13.60
2017-09-12T17:51:24.211Z,13.60
2017-09-12T17:53:51.963Z,13.50
2017-09-12T17:56:19.814Z,13.50
2017-09-12T17:58:47.486Z,13.40
2017-09-12T18:01:15.348Z,13.40
2017-09-12T18:03:43.080Z,13.40
2017-09-12T18:06:11.099Z,13.30
2017-09-12T18:08:39.825Z,13.30
2017-09-12T18:11:07.781Z,13.30
2017-09-12T18:13:35.604Z,13.20
2017-09-12T18:16:04.231Z,13.10
2017-09-12T18:18:32.205Z,13.10
2017-09-12T18:20:59.897Z,13.10
2017-09-12T18:23:27.977Z,13.00
2017-09-12T18:25:56.087Z,13.00
2017-09-12T18:28:23.713Z,13.00
2017-09-12T18:30:51.649Z,13.00
2017-09-12T18:33:19.510Z,13.00
2017-09-12T18:35:48.657Z,13.00
2017-09-12T18:38:23.942Z,12.90
2017-09-12T18:40:51.656Z,12.90
2017-09-12T18:43:19.356Z,12.80
2017-09-12T18:45:47.097Z,12.80
2017-09-12T18:48:15.083Z,12.80
2017-09-12T18:50:43.520Z,12.80
2017-09-12T18:53:12.057Z,12.70
2017-09-12T18:55:39.936Z,12.70
2017-09-12T18:58:07.739Z,12.70
2017-09-12T19:00:36.163Z,12.70
2017-09-12T19:03:04.530Z,12.70
2017-09-12T19:05:32.116Z,12.70
2017-09-12T19:08:00.040Z,12.70
2017-09-12T19:10:27.652Z,12.70
2017-09-12T19:12:55.241Z,12.60
2017-09-12T19:15:22.894Z,12.60
2017-09-12T19:17:50.569Z,12.60
2017-09-12T19:20:18.166Z,12.60
2017-09-12T19:22:45.783Z,12.60
2017-09-12T19:25:14.122Z,12.50
2017-09-12T19:27:41.712Z,12.50
2017-09-12T19:30:09.571Z,12.50
2017-09-12T19:32:37.149Z,12.40
2017-09-12T19:35:04.775Z,12.40
2017-09-12T19:37:32.476Z,12.40
2017-09-12T19:40:00.823Z,12.30
2017-09-12T19:42:28.422Z,12.30
2017-09-12T19:44:56.035Z,12.30
2017-09-12T19:47:24.417Z,12.30
2017-09-12T19:49:52.104Z,12.20
2017-09-12T19:52:19.751Z,12.20
2017-09-12T19:54:47.396Z,12.20
2017-09-12T19:57:14.988Z,12.20
2017-09-12T19:59:42.620Z,12.20
2017-09-12T20:02:10.985Z,12.10
2017-09-12T20:04:39.372Z,12.10
2017-09-12T20:07:06.997Z,12.10
2017-09-12T20:09:34.596Z,12.10
2017-09-12T20:12:02.227Z,12.10
2017-09-12T20:14:29.846Z,12.10
2017-09-12T20:16:57.432Z,12.00
2017-09-12T20:19:25.016Z,12.00
2017-09-12T20:21:53.436Z,12.00
2017-09-12T20:24:21.070Z,12.00
2017-09-12T20:26:48.661Z,12.00
2017-09-12T20:29:17.148Z,11.90
2017-09-12T20:31:44.742Z,11.90
2017-09-12T20:34:12.333Z,11.90
2017-09-12T20:36:39.975Z,11.90
2017-09-12T20:39:07.567Z,12.00
2017-09-12T20:41:35.208Z,11.90
2017-09-12T20:44:02.979Z,11.90
2017-09-12T20:46:30.573Z,11.90
2017-09-12T20:48:58.215Z,11.90
2017-09-12T20:51:25.865Z,11.90
2017-09-12T20:53:54.245Z,11.80
2017-09-12T20:56:21.827Z,11.80
2017-09-12T20:58:49.467Z,11.80
2017-09-12T21:01:17.042Z,11.80
2017-09-12T21:03:44.642Z,11.80
2017-09-12T21:06:12.307Z,11.70
2017-09-12T21:08:39.887Z,11.80
2017-09-12T21:11:07.462Z,11.70
2017-09-12T21:13:35.197Z,11.70
2017-09-12T21:16:02.782Z,11.70
2017-09-12T21:18:30.372Z,11.70
2017-09-12T21:20:58.011Z,11.70
2017-09-12T21:23:25.598Z,11.60
2017-09-12T21:25:53.179Z,11.60
2017-09-12T21:28:21.577Z,11.60
2017-09-12T21:30:49.169Z,11.60
2017-09-12T21:33:16.751Z,11.60
2017-09-12T21:35:44.557Z,11.60
2017-09-12T21:38:12.148Z,11.50
2017-09-12T21:40:39.778Z,11.50
2017-09-12T21:43:07.445Z,11.50
2017-09-12T21:45:35.037Z,11.50
2017-09-12T21:48:02.669Z,11.60
2017-09-12T21:50:31.404Z,11.60
2017-09-12T21:52:59.000Z,11.50
2017-09-12T21:55:26.734Z,11.60
2017-09-12T21:57:54.526Z,11.60
2017-09-12T22:00:22.111Z,11.50
2017-09-12T22:02:49.746Z,11.50
2017-09-12T22:05:17.382Z,11.50
2017-09-12T22:07:44.973Z,11.50
2017-09-12T22:10:12.571Z,11.40
2017-09-12T22:12:40.422Z,11.40
2017-09-12T22:15:08.012Z,11.40
2017-09-12T22:17:35.660Z,11.40
2017-09-12T22:20:03.726Z,11.40
2017-09-12T22:22:32.130Z,11.40
2017-09-12T22:24:59.721Z,11.40
2017-09-12T22:27:28.907Z,11.40
2017-09-12T22:29:57.269Z,11.40
2017-09-12T22:32:24.855Z,11.30
2017-09-12T22:34:52.700Z,11.30
2017-09-12T22:37:20.284Z,11.30
2017-09-12T22:39:48.134Z,11.40
2017-09-12T22:42:15.756Z,11.40
2017-09-12T22:44:43.344Z,11.30
2017-09-12T22:47:10.940Z,11.30
2017-09-12T22:49:38.566Z,11.30
2017-09-12T22:52:06.199Z,11.30
2017-09-12T22:54:34.557Z,11.20
2017-09-12T22:57:02.942Z,11.20
2017-09-12T22:59:30.529Z,11.20
2017-09-12T23:01:58.347Z,11.20
2017-09-12T23:04:25.981Z,11.20
2017-09-12T23:06:53.564Z,11.20
2017-09-12T23:09:21.142Z,11.20
2017-09-12T23:11:49.732Z,11.10
2017-09-12T23:14:17.332Z,11.10
2017-09-12T23:16:44.959Z,11.10
2017-09-12T23:19:12.759Z,11.10
2017-09-12T23:21:41.116Z,11.10
2017-09-12T23:24:09.464Z,11.10
2017-09-12T23:26:37.873Z,11.10
2017-09-12T23:29:05.479Z,11.00
2017-09-12T23:31:33.842Z,11.10
2017-09-12T23:34:02.807Z,11.10
2017-09-12T23:36:30.401Z,11.10
2017-09-12T23:38:58.100Z,11.10
2017-09-12T23:41:25.822Z,11.10
2017-09-12T23:43:53.398Z,11.10
2017-09-12T23:46:21.742Z,11.10
2017-09-12T23:48:50.160Z,11.00
2017-09-12T23:51:17.779Z,11.00
2017-09-12T23:53:46.153Z,11.00
2017-09-12T23:56:13.884Z,11.00
2017-09-12T23:58:42.281Z,11.00
